sensor_id;sensor_type;location;lat;lon;timestamp;P1;durP1;ratioP1;P2;durP2;ratioP2
14094;SDS011;18096;48.142;16.290;2023-01-13T00:01:17;1.80;;;1.70;;
14094;SDS011;18096;48.142;16.290;2023-01-13T00:03:44;1.40;;;1.30;;
14094;SDS011;18096;48.142;16.290;2023-01-13T00:06:15;1.70;;;1.38;;
14094;SDS011;18096;48.142;16.290;2023-01-13T00:08:42;2.90;;;1.60;;
14094;SDS011;18096;48.142;16.290;2023-01-13T00:11:09;1.75;;;1.17;;
14094;SDS011;18096;48.142;16.290;2023-01-13T00:13:35;1.60;;;1.10;;
14094;SDS011;18096;48.142;16.290;2023-01-13T00:16:03;2.10;;;1.10;;
14094;SDS011;18096;48.142;16.290;2023-01-13T00:18:30;1.43;;;1.33;;
14094;SDS011;18096;48.142;16.290;2023-01-13T00:21:00;4.43;;;1.20;;
14094;SDS011;18096;48.142;16.290;2023-01-13T00:23:28;5.32;;;1.30;;
14094;SDS011;18096;48.142;16.290;2023-01-13T00:25:56;1.50;;;1.40;;
14094;SDS011;18096;48.142;16.290;2023-01-13T00:28:26;1.20;;;1.00;;
14094;SDS011;18096;48.142;16.290;2023-01-13T00:30:52;1.20;;;1.10;;
14094;SDS011;18096;48.142;16.290;2023-01-13T00:33:20;2.03;;;1.30;;
14094;SDS011;18096;48.142;16.290;2023-01-13T00:35:54;1.20;;;1.20;;
14094;SDS011;18096;48.142;16.290;2023-01-13T00:38:23;1.80;;;1.15;;
14094;SDS011;18096;48.142;16.290;2023-01-13T00:41:00;1.70;;;1.50;;
14094;SDS011;18096;48.142;16.290;2023-01-13T00:43:30;1.20;;;1.10;;
14094;SDS011;18096;48.142;16.290;2023-01-13T00:45:57;1.40;;;1.30;;
14094;SDS011;18096;48.142;16.290;2023-01-13T00:48:23;3.83;;;1.38;;
14094;SDS011;18096;48.142;16.290;2023-01-13T00:53:25;1.30;;;1.20;;
14094;SDS011;18096;48.142;16.290;2023-01-13T00:55:59;1.10;;;1.00;;
14094;SDS011;18096;48.142;16.290;2023-01-13T00:58:26;1.08;;;1.08;;
14094;SDS011;18096;48.142;16.290;2023-01-13T01:00:52;3.47;;;1.80;;
14094;SDS011;18096;48.142;16.290;2023-01-13T01:03:18;1.50;;;1.40;;
14094;SDS011;18096;48.142;16.290;2023-01-13T01:05:43;1.30;;;1.20;;
14094;SDS011;18096;48.142;16.290;2023-01-13T01:08:09;1.45;;;1.35;;
14094;SDS011;18096;48.142;16.290;2023-01-13T01:10:35;1.38;;;1.27;;
14094;SDS011;18096;48.142;16.290;2023-01-13T01:13:00;1.50;;;1.20;;
14094;SDS011;18096;48.142;16.290;2023-01-13T01:15:26;1.27;;;1.17;;
14094;SDS011;18096;48.142;16.290;2023-01-13T01:17:52;1.15;;;1.10;;
14094;SDS011;18096;48.142;16.290;2023-01-13T01:20:17;1.30;;;0.90;;
14094;SDS011;18096;48.142;16.290;2023-01-13T01:22:43;1.40;;;1.10;;
14094;SDS011;18096;48.142;16.290;2023-01-13T01:25:09;1.40;;;1.30;;
14094;SDS011;18096;48.142;16.290;2023-01-13T01:27:34;3.10;;;1.40;;
14094;SDS011;18096;48.142;16.290;2023-01-13T01:30:00;1.40;;;1.30;;
14094;SDS011;18096;48.142;16.290;2023-01-13T01:32:26;1.97;;;1.30;;
14094;SDS011;18096;48.142;16.290;2023-01-13T01:34:51;1.30;;;1.20;;
14094;SDS011;18096;48.142;16.290;2023-01-13T01:37:17;5.70;;;1.70;;
14094;SDS011;18096;48.142;16.290;2023-01-13T01:39:43;1.50;;;1.40;;
14094;SDS011;18096;48.142;16.290;2023-01-13T01:42:12;2.15;;;1.20;;
14094;SDS011;18096;48.142;16.290;2023-01-13T01:44:59;1.60;;;1.02;;
14094;SDS011;18096;48.142;16.290;2023-01-13T01:47:33;0.90;;;0.90;;
14094;SDS011;18096;48.142;16.290;2023-01-13T01:49:59;1.10;;;1.00;;
14094;SDS011;18096;48.142;16.290;2023-01-13T01:52:33;2.50;;;1.00;;
14094;SDS011;18096;48.142;16.290;2023-01-13T01:55:05;0.80;;;0.80;;
14094;SDS011;18096;48.142;16.290;2023-01-13T01:57:50;1.10;;;0.90;;
14094;SDS011;18096;48.142;16.290;2023-01-13T02:00:20;2.10;;;1.13;;
14094;SDS011;18096;48.142;16.290;2023-01-13T02:02:47;2.20;;;1.30;;
14094;SDS011;18096;48.142;16.290;2023-01-13T02:05:15;1.40;;;1.10;;
14094;SDS011;18096;48.142;16.290;2023-01-13T02:07:42;3.17;;;1.10;;
14094;SDS011;18096;48.142;16.290;2023-01-13T02:10:12;1.48;;;1.00;;
14094;SDS011;18096;48.142;16.290;2023-01-13T02:12:40;1.70;;;1.05;;
14094;SDS011;18096;48.142;16.290;2023-01-13T02:15:09;1.10;;;1.10;;
14094;SDS011;18096;48.142;16.290;2023-01-13T02:32:18;1.52;;;1.35;;
14094;SDS011;18096;48.142;16.290;2023-01-13T02:35:35;6.70;;;1.50;;
14094;SDS011;18096;48.142;16.290;2023-01-13T02:37:44;2.75;;;1.40;;
14094;SDS011;18096;48.142;16.290;2023-01-13T02:40:11;2.00;;;1.20;;
14094;SDS011;18096;48.142;16.290;2023-01-13T02:45:56;1.67;;;1.55;;
14094;SDS011;18096;48.142;16.290;2023-01-13T02:48:26;2.10;;;1.30;;
14094;SDS011;18096;48.142;16.290;2023-01-13T02:50:57;2.70;;;1.30;;
14094;SDS011;18096;48.142;16.290;2023-01-13T02:53:27;2.90;;;1.20;;
14094;SDS011;18096;48.142;16.290;2023-01-13T02:56:01;2.10;;;1.20;;
14094;SDS011;18096;48.142;16.290;2023-01-13T02:58:29;4.20;;;1.50;;
14094;SDS011;18096;48.142;16.290;2023-01-13T03:00:57;0.80;;;0.80;;
14094;SDS011;18096;48.142;16.290;2023-01-13T03:03:23;3.75;;;1.13;;
14094;SDS011;18096;48.142;16.290;2023-01-13T03:05:50;1.70;;;1.30;;
14094;SDS011;18096;48.142;16.290;2023-01-13T03:22:07;1.40;;;1.30;;
14094;SDS011;18096;48.142;16.290;2023-01-13T03:24:38;1.20;;;0.98;;
14094;SDS011;18096;48.142;16.290;2023-01-13T03:34:54;2.70;;;1.20;;
14094;SDS011;18096;48.142;16.290;2023-01-13T03:37:33;1.10;;;1.00;;
14094;SDS011;18096;48.142;16.290;2023-01-13T03:40:06;1.90;;;0.95;;
14094;SDS011;18096;48.142;16.290;2023-01-13T03:42:54;0.85;;;0.85;;
14094;SDS011;18096;48.142;16.290;2023-01-13T03:45:43;0.90;;;0.90;;
14094;SDS011;18096;48.142;16.290;2023-01-13T03:48:14;0.98;;;0.88;;
14094;SDS011;18096;48.142;16.290;2023-01-13T03:50:49;3.17;;;1.23;;
14094;SDS011;18096;48.142;16.290;2023-01-13T03:53:37;0.70;;;0.70;;
14094;SDS011;18096;48.142;16.290;2023-01-13T03:56:13;0.90;;;0.90;;
14094;SDS011;18096;48.142;16.290;2023-01-13T03:58:52;3.30;;;0.80;;
14094;SDS011;18096;48.142;16.290;2023-01-13T04:01:25;0.98;;;0.77;;
14094;SDS011;18096;48.142;16.290;2023-01-13T04:04:02;1.20;;;0.70;;
14094;SDS011;18096;48.142;16.290;2023-01-13T04:06:36;1.00;;;0.80;;
14094;SDS011;18096;48.142;16.290;2023-01-13T04:09:13;0.60;;;0.60;;
14094;SDS011;18096;48.142;16.290;2023-01-13T04:12:33;0.90;;;0.75;;
14094;SDS011;18096;48.142;16.290;2023-01-13T04:15:16;1.73;;;0.70;;
14094;SDS011;18096;48.142;16.290;2023-01-13T04:17:45;0.70;;;0.70;;
14094;SDS011;18096;48.142;16.290;2023-01-13T04:20:11;0.60;;;0.60;;
14094;SDS011;18096;48.142;16.290;2023-01-13T04:22:37;0.60;;;0.60;;
14094;SDS011;18096;48.142;16.290;2023-01-13T04:25:03;0.63;;;0.63;;
14094;SDS011;18096;48.142;16.290;2023-01-13T04:27:29;1.10;;;0.90;;
14094;SDS011;18096;48.142;16.290;2023-01-13T04:29:55;11.67;;;1.40;;
14094;SDS011;18096;48.142;16.290;2023-01-13T04:32:20;4.90;;;1.25;;
14094;SDS011;18096;48.142;16.290;2023-01-13T04:34:46;1.10;;;0.80;;
14094;SDS011;18096;48.142;16.290;2023-01-13T04:37:12;2.27;;;0.90;;
14094;SDS011;18096;48.142;16.290;2023-01-13T04:39:37;1.80;;;1.10;;
14094;SDS011;18096;48.142;16.290;2023-01-13T04:42:03;0.80;;;0.80;;
14094;SDS011;18096;48.142;16.290;2023-01-13T04:44:29;5.50;;;0.80;;
14094;SDS011;18096;48.142;16.290;2023-01-13T04:46:59;3.10;;;1.10;;
14094;SDS011;18096;48.142;16.290;2023-01-13T04:49:26;0.60;;;0.60;;
14094;SDS011;18096;48.142;16.290;2023-01-13T04:51:52;0.70;;;0.70;;
14094;SDS011;18096;48.142;16.290;2023-01-13T04:54:17;1.40;;;0.80;;
14094;SDS011;18096;48.142;16.290;2023-01-13T04:56:43;0.80;;;0.70;;
14094;SDS011;18096;48.142;16.290;2023-01-13T04:59:09;2.00;;;0.80;;
14094;SDS011;18096;48.142;16.290;2023-01-13T05:01:36;1.17;;;1.08;;
14094;SDS011;18096;48.142;16.290;2023-01-13T05:04:02;0.80;;;0.80;;
14094;SDS011;18096;48.142;16.290;2023-01-13T05:06:28;1.90;;;0.90;;
14094;SDS011;18096;48.142;16.290;2023-01-13T05:08:54;0.90;;;0.80;;
14094;SDS011;18096;48.142;16.290;2023-01-13T05:11:21;5.00;;;0.80;;
14094;SDS011;18096;48.142;16.290;2023-01-13T05:14:05;1.60;;;0.70;;
14094;SDS011;18096;48.142;16.290;2023-01-13T05:16:50;0.90;;;0.90;;
14094;SDS011;18096;48.142;16.290;2023-01-13T05:19:24;0.80;;;0.80;;
14094;SDS011;18096;48.142;16.290;2023-01-13T05:21:50;0.57;;;0.57;;
14094;SDS011;18096;48.142;16.290;2023-01-13T05:24:34;0.98;;;0.95;;
14094;SDS011;18096;48.142;16.290;2023-01-13T05:27:18;2.40;;;0.82;;
14094;SDS011;18096;48.142;16.290;2023-01-13T05:29:44;1.50;;;1.40;;
14094;SDS011;18096;48.142;16.290;2023-01-13T05:32:10;1.30;;;1.03;;
14094;SDS011;18096;48.142;16.290;2023-01-13T05:34:35;5.60;;;2.13;;
14094;SDS011;18096;48.142;16.290;2023-01-13T05:37:01;3.60;;;2.70;;
14094;SDS011;18096;48.142;16.290;2023-01-13T05:39:27;3.00;;;2.20;;
14094;SDS011;18096;48.142;16.290;2023-01-13T05:42:13;1.60;;;1.50;;
14094;SDS011;18096;48.142;16.290;2023-01-13T05:44:57;2.28;;;2.00;;
14094;SDS011;18096;48.142;16.290;2023-01-13T05:47:23;3.08;;;1.42;;
14094;SDS011;18096;48.142;16.290;2023-01-13T05:49:48;1.70;;;1.30;;
14094;SDS011;18096;48.142;16.290;2023-01-13T05:52:14;1.50;;;0.97;;
14094;SDS011;18096;48.142;16.290;2023-01-13T05:54:40;0.93;;;0.93;;
14094;SDS011;18096;48.142;16.290;2023-01-13T05:57:05;1.52;;;1.42;;
14094;SDS011;18096;48.142;16.290;2023-01-13T05:59:31;5.43;;;1.38;;
14094;SDS011;18096;48.142;16.290;2023-01-13T06:01:56;2.80;;;2.30;;
14094;SDS011;18096;48.142;16.290;2023-01-13T06:04:22;18.58;;;2.88;;
14094;SDS011;18096;48.142;16.290;2023-01-13T06:06:48;6.68;;;3.10;;
14094;SDS011;18096;48.142;16.290;2023-01-13T06:09:13;4.30;;;2.70;;
14094;SDS011;18096;48.142;16.290;2023-01-13T06:11:39;3.73;;;2.80;;
14094;SDS011;18096;48.142;16.290;2023-01-13T06:14:05;6.45;;;3.20;;
14094;SDS011;18096;48.142;16.290;2023-01-13T06:16:30;8.80;;;2.67;;
14094;SDS011;18096;48.142;16.290;2023-01-13T06:18:56;19.10;;;2.90;;
14094;SDS011;18096;48.142;16.290;2023-01-13T06:21:22;6.13;;;3.20;;
14094;SDS011;18096;48.142;16.290;2023-01-13T06:23:47;3.55;;;2.72;;
14094;SDS011;18096;48.142;16.290;2023-01-13T06:26:15;6.47;;;3.30;;
14094;SDS011;18096;48.142;16.290;2023-01-13T06:28:43;7.57;;;2.97;;
14094;SDS011;18096;48.142;16.290;2023-01-13T06:31:09;3.58;;;2.92;;
14094;SDS011;18096;48.142;16.290;2023-01-13T06:33:36;5.70;;;3.50;;
14094;SDS011;18096;48.142;16.290;2023-01-13T06:36:06;12.37;;;3.50;;
14094;SDS011;18096;48.142;16.290;2023-01-13T06:38:39;6.53;;;2.90;;
14094;SDS011;18096;48.142;16.290;2023-01-13T06:41:09;5.18;;;3.13;;
14094;SDS011;18096;48.142;16.290;2023-01-13T06:43:35;7.40;;;3.40;;
14094;SDS011;18096;48.142;16.290;2023-01-13T06:46:03;6.18;;;2.92;;
14094;SDS011;18096;48.142;16.290;2023-01-13T06:48:30;4.68;;;2.90;;
14094;SDS011;18096;48.142;16.290;2023-01-13T06:50:58;4.20;;;3.10;;
14094;SDS011;18096;48.142;16.290;2023-01-13T06:53:24;3.20;;;2.90;;
14094;SDS011;18096;48.142;16.290;2023-01-13T06:55:49;7.10;;;2.60;;
14094;SDS011;18096;48.142;16.290;2023-01-13T06:58:15;12.90;;;3.50;;
14094;SDS011;18096;48.142;16.290;2023-01-13T07:00:41;6.93;;;3.05;;
14094;SDS011;18096;48.142;16.290;2023-01-13T07:03:11;3.30;;;2.70;;
14094;SDS011;18096;48.142;16.290;2023-01-13T07:05:39;5.05;;;2.90;;
14094;SDS011;18096;48.142;16.290;2023-01-13T07:08:06;6.97;;;3.35;;
14094;SDS011;18096;48.142;16.290;2023-01-13T07:10:33;6.38;;;3.50;;
14094;SDS011;18096;48.142;16.290;2023-01-13T07:13:00;5.05;;;3.08;;
14094;SDS011;18096;48.142;16.290;2023-01-13T07:15:51;6.13;;;2.90;;
14094;SDS011;18096;48.142;16.290;2023-01-13T07:18:18;3.78;;;3.30;;
14094;SDS011;18096;48.142;16.290;2023-01-13T07:20:50;10.33;;;3.30;;
14094;SDS011;18096;48.142;16.290;2023-01-13T07:23:16;5.13;;;2.50;;
14094;SDS011;18096;48.142;16.290;2023-01-13T07:25:42;12.50;;;3.72;;
14094;SDS011;18096;48.142;16.290;2023-01-13T07:28:07;5.83;;;3.00;;
14094;SDS011;18096;48.142;16.290;2023-01-13T07:30:33;4.00;;;3.23;;
14094;SDS011;18096;48.142;16.290;2023-01-13T07:32:59;8.48;;;3.20;;
14094;SDS011;18096;48.142;16.290;2023-01-13T07:35:24;6.13;;;3.38;;
14094;SDS011;18096;48.142;16.290;2023-01-13T07:37:50;8.33;;;3.60;;
14094;SDS011;18096;48.142;16.290;2023-01-13T07:40:16;5.10;;;3.30;;
14094;SDS011;18096;48.142;16.290;2023-01-13T07:42:41;4.03;;;3.05;;
14094;SDS011;18096;48.142;16.290;2023-01-13T07:45:26;10.10;;;2.97;;
14094;SDS011;18096;48.142;16.290;2023-01-13T07:47:51;5.87;;;3.30;;
14094;SDS011;18096;48.142;16.290;2023-01-13T07:50:18;6.70;;;3.28;;
14094;SDS011;18096;48.142;16.290;2023-01-13T07:52:45;11.20;;;3.60;;
14094;SDS011;18096;48.142;16.290;2023-01-13T07:55:10;5.00;;;3.07;;
14094;SDS011;18096;48.142;16.290;2023-01-13T07:57:36;5.40;;;3.23;;
14094;SDS011;18096;48.142;16.290;2023-01-13T08:00:03;5.00;;;3.90;;
14094;SDS011;18096;48.142;16.290;2023-01-13T08:02:29;12.17;;;3.27;;
14094;SDS011;18096;48.142;16.290;2023-01-13T08:04:55;8.00;;;3.70;;
14094;SDS011;18096;48.142;16.290;2023-01-13T08:07:20;9.00;;;3.50;;
14094;SDS011;18096;48.142;16.290;2023-01-13T08:09:46;3.15;;;2.90;;
14094;SDS011;18096;48.142;16.290;2023-01-13T08:12:12;18.30;;;3.78;;
14094;SDS011;18096;48.142;16.290;2023-01-13T08:14:56;2.80;;;2.60;;
14094;SDS011;18096;48.142;16.290;2023-01-13T08:17:22;4.05;;;2.90;;
14094;SDS011;18096;48.142;16.290;2023-01-13T08:19:48;3.70;;;3.20;;
14094;SDS011;18096;48.142;16.290;2023-01-13T08:22:14;3.55;;;3.05;;
14094;SDS011;18096;48.142;16.290;2023-01-13T08:24:39;5.00;;;3.20;;
14094;SDS011;18096;48.142;16.290;2023-01-13T08:27:05;6.13;;;4.40;;
14094;SDS011;18096;48.142;16.290;2023-01-13T08:29:31;7.73;;;5.00;;
14094;SDS011;18096;48.142;16.290;2023-01-13T08:31:56;10.43;;;5.30;;
14094;SDS011;18096;48.142;16.290;2023-01-13T08:34:22;8.15;;;4.85;;
14094;SDS011;18096;48.142;16.290;2023-01-13T08:36:48;5.63;;;3.77;;
14094;SDS011;18096;48.142;16.290;2023-01-13T08:39:14;9.32;;;3.80;;
14094;SDS011;18096;48.142;16.290;2023-01-13T08:41:39;5.30;;;3.90;;
14094;SDS011;18096;48.142;16.290;2023-01-13T08:44:20;10.02;;;3.40;;
14094;SDS011;18096;48.142;16.290;2023-01-13T08:46:53;7.07;;;3.33;;
14094;SDS011;18096;48.142;16.290;2023-01-13T08:49:19;16.27;;;3.42;;
14094;SDS011;18096;48.142;16.290;2023-01-13T08:51:46;6.28;;;4.00;;
14094;SDS011;18096;48.142;16.290;2023-01-13T08:54:12;4.53;;;3.97;;
14094;SDS011;18096;48.142;16.290;2023-01-13T08:56:39;11.30;;;3.88;;
14094;SDS011;18096;48.142;16.290;2023-01-13T08:59:12;8.27;;;3.45;;
14094;SDS011;18096;48.142;16.290;2023-01-13T09:01:39;8.98;;;4.20;;
14094;SDS011;18096;48.142;16.290;2023-01-13T09:07:00;8.50;;;4.43;;
14094;SDS011;18096;48.142;16.290;2023-01-13T09:09:26;16.40;;;3.90;;
14094;SDS011;18096;48.142;16.290;2023-01-13T09:11:52;8.53;;;4.30;;
14094;SDS011;18096;48.142;16.290;2023-01-13T09:14:37;4.78;;;4.00;;
14094;SDS011;18096;48.142;16.290;2023-01-13T09:17:03;9.05;;;3.70;;
14094;SDS011;18096;48.142;16.290;2023-01-13T09:19:29;5.43;;;3.60;;
14094;SDS011;18096;48.142;16.290;2023-01-13T09:21:55;7.97;;;3.97;;
14094;SDS011;18096;48.142;16.290;2023-01-13T09:24:21;6.47;;;4.13;;
14094;SDS011;18096;48.142;16.290;2023-01-13T09:26:47;10.07;;;4.00;;
14094;SDS011;18096;48.142;16.290;2023-01-13T09:29:13;5.40;;;3.80;;
14094;SDS011;18096;48.142;16.290;2023-01-13T09:31:40;6.47;;;4.07;;
14094;SDS011;18096;48.142;16.290;2023-01-13T09:34:08;9.90;;;4.27;;
14094;SDS011;18096;48.142;16.290;2023-01-13T09:36:58;7.63;;;4.00;;
14094;SDS011;18096;48.142;16.290;2023-01-13T09:39:24;4.70;;;3.78;;
14094;SDS011;18096;48.142;16.290;2023-01-13T09:41:50;7.37;;;4.63;;
14094;SDS011;18096;48.142;16.290;2023-01-13T09:44:42;7.35;;;4.57;;
14094;SDS011;18096;48.142;16.290;2023-01-13T09:49:55;7.43;;;4.88;;
14094;SDS011;18096;48.142;16.290;2023-01-13T09:52:27;9.23;;;5.00;;
14094;SDS011;18096;48.142;16.290;2023-01-13T09:55:01;8.00;;;4.87;;
14094;SDS011;18096;48.142;16.290;2023-01-13T09:57:31;7.30;;;4.82;;
14094;SDS011;18096;48.142;16.290;2023-01-13T10:00:01;13.52;;;4.78;;
14094;SDS011;18096;48.142;16.290;2023-01-13T10:02:33;8.57;;;5.43;;
14094;SDS011;18096;48.142;16.290;2023-01-13T10:07:36;11.68;;;5.53;;
14094;SDS011;18096;48.142;16.290;2023-01-13T10:10:12;17.40;;;6.00;;
14094;SDS011;18096;48.142;16.290;2023-01-13T10:12:43;16.85;;;6.53;;
14094;SDS011;18096;48.142;16.290;2023-01-13T10:15:28;7.97;;;5.30;;
14094;SDS011;18096;48.142;16.290;2023-01-13T10:17:55;7.20;;;5.43;;
14094;SDS011;18096;48.142;16.290;2023-01-13T10:25:48;12.63;;;6.07;;
14094;SDS011;18096;48.142;16.290;2023-01-13T10:28:23;9.63;;;6.30;;
14094;SDS011;18096;48.142;16.290;2023-01-13T10:30:49;16.33;;;6.43;;
14094;SDS011;18096;48.142;16.290;2023-01-13T10:33:25;9.88;;;5.50;;
14094;SDS011;18096;48.142;16.290;2023-01-13T10:35:58;10.30;;;5.60;;
14094;SDS011;18096;48.142;16.290;2023-01-13T10:40:54;12.10;;;5.88;;
14094;SDS011;18096;48.142;16.290;2023-01-13T10:43:25;15.40;;;6.23;;
14094;SDS011;18096;48.142;16.290;2023-01-13T10:45:56;13.20;;;7.43;;
14094;SDS011;18096;48.142;16.290;2023-01-13T10:48:30;9.00;;;6.18;;
14094;SDS011;18096;48.142;16.290;2023-01-13T10:53:43;9.38;;;5.68;;
14094;SDS011;18096;48.142;16.290;2023-01-13T10:56:15;9.20;;;5.30;;
14094;SDS011;18096;48.142;16.290;2023-01-13T10:58:42;10.15;;;5.68;;
14094;SDS011;18096;48.142;16.290;2023-01-13T11:01:10;18.00;;;6.35;;
14094;SDS011;18096;48.142;16.290;2023-01-13T11:03:45;13.32;;;6.82;;
14094;SDS011;18096;48.142;16.290;2023-01-13T11:06:18;10.90;;;6.22;;
14094;SDS011;18096;48.142;16.290;2023-01-13T11:08:47;11.20;;;6.72;;
14094;SDS011;18096;48.142;16.290;2023-01-13T11:13:55;6.97;;;5.50;;
14094;SDS011;18096;48.142;16.290;2023-01-13T11:16:45;7.43;;;5.13;;
14094;SDS011;18096;48.142;16.290;2023-01-13T11:19:16;9.80;;;6.23;;
14094;SDS011;18096;48.142;16.290;2023-01-13T11:27:02;12.95;;;6.88;;
14094;SDS011;18096;48.142;16.290;2023-01-13T11:33:22;10.25;;;6.00;;
14094;SDS011;18096;48.142;16.290;2023-01-13T11:35:26;13.82;;;5.97;;
14094;SDS011;18096;48.142;16.290;2023-01-13T11:38:00;9.27;;;6.10;;
14094;SDS011;18096;48.142;16.290;2023-01-13T11:40:40;12.80;;;6.57;;
14094;SDS011;18096;48.142;16.290;2023-01-13T11:43:16;7.78;;;6.30;;
14094;SDS011;18096;48.142;16.290;2023-01-13T11:45:56;12.65;;;6.45;;
14094;SDS011;18096;48.142;16.290;2023-01-13T11:48:25;5.97;;;5.20;;
14094;SDS011;18096;48.142;16.290;2023-01-13T12:01:59;7.45;;;6.32;;
14094;SDS011;18096;48.142;16.290;2023-01-13T12:27:05;9.47;;;6.20;;
14094;SDS011;18096;48.142;16.290;2023-01-13T12:29:39;10.93;;;5.70;;
14094;SDS011;18096;48.142;16.290;2023-01-13T12:32:07;14.60;;;6.00;;
14094;SDS011;18096;48.142;16.290;2023-01-13T12:42:31;8.35;;;5.35;;
14094;SDS011;18096;48.142;16.290;2023-01-13T12:45:24;5.68;;;4.85;;
14094;SDS011;18096;48.142;16.290;2023-01-13T12:47:51;6.20;;;5.38;;
14094;SDS011;18096;48.142;16.290;2023-01-13T12:52:46;7.72;;;5.72;;
14094;SDS011;18096;48.142;16.290;2023-01-13T12:57:56;12.90;;;6.07;;
14094;SDS011;18096;48.142;16.290;2023-01-13T13:05:54;6.47;;;5.00;;
14094;SDS011;18096;48.142;16.290;2023-01-13T13:08:57;8.13;;;5.28;;
14094;SDS011;18096;48.142;16.290;2023-01-13T13:11:37;7.68;;;5.85;;
14094;SDS011;18096;48.142;16.290;2023-01-13T13:19:45;8.63;;;5.15;;
14094;SDS011;18096;48.142;16.290;2023-01-13T13:24:41;6.50;;;4.90;;
14094;SDS011;18096;48.142;16.290;2023-01-13T13:29:45;7.22;;;4.00;;
14094;SDS011;18096;48.142;16.290;2023-01-13T13:35:06;7.47;;;4.50;;
14094;SDS011;18096;48.142;16.290;2023-01-13T13:40:48;7.35;;;5.40;;
14094;SDS011;18096;48.142;16.290;2023-01-13T13:43:42;6.93;;;3.97;;
14094;SDS011;18096;48.142;16.290;2023-01-13T13:46:31;6.60;;;4.40;;
14094;SDS011;18096;48.142;16.290;2023-01-13T13:49:11;3.60;;;3.30;;
14094;SDS011;18096;48.142;16.290;2023-01-13T13:54:23;15.88;;;5.30;;
14094;SDS011;18096;48.142;16.290;2023-01-13T13:56:50;19.42;;;5.80;;
14094;SDS011;18096;48.142;16.290;2023-01-13T13:59:23;10.13;;;6.00;;
14094;SDS011;18096;48.142;16.290;2023-01-13T14:01:53;4.95;;;4.55;;
14094;SDS011;18096;48.142;16.290;2023-01-13T14:04:25;6.63;;;5.00;;
14094;SDS011;18096;48.142;16.290;2023-01-13T14:09:21;7.22;;;4.70;;
14094;SDS011;18096;48.142;16.290;2023-01-13T14:11:55;6.63;;;5.75;;
14094;SDS011;18096;48.142;16.290;2023-01-13T14:14:26;7.18;;;5.28;;
14094;SDS011;18096;48.142;16.290;2023-01-13T14:16:52;11.18;;;5.50;;
14094;SDS011;18096;48.142;16.290;2023-01-13T14:21:58;8.02;;;4.82;;
14094;SDS011;18096;48.142;16.290;2023-01-13T14:24:25;9.52;;;5.43;;
14094;SDS011;18096;48.142;16.290;2023-01-13T14:26:51;8.07;;;4.90;;
14094;SDS011;18096;48.142;16.290;2023-01-13T14:29:19;7.00;;;5.18;;
14094;SDS011;18096;48.142;16.290;2023-01-13T14:31:47;5.03;;;4.63;;
14094;SDS011;18096;48.142;16.290;2023-01-13T14:34:15;7.85;;;5.63;;
14094;SDS011;18096;48.142;16.290;2023-01-13T14:36:41;12.25;;;5.13;;
14094;SDS011;18096;48.142;16.290;2023-01-13T14:41:52;14.27;;;6.28;;
14094;SDS011;18096;48.142;16.290;2023-01-13T14:44:28;10.52;;;6.65;;
14094;SDS011;18096;48.142;16.290;2023-01-13T14:47:00;10.88;;;6.55;;
14094;SDS011;18096;48.142;16.290;2023-01-13T14:52:29;9.38;;;6.18;;
14094;SDS011;18096;48.142;16.290;2023-01-13T15:04:53;12.15;;;6.35;;
14094;SDS011;18096;48.142;16.290;2023-01-13T15:10:20;7.78;;;6.55;;
14094;SDS011;18096;48.142;16.290;2023-01-13T15:12:55;12.35;;;6.65;;
14094;SDS011;18096;48.142;16.290;2023-01-13T15:15:35;13.18;;;7.32;;
14094;SDS011;18096;48.142;16.290;2023-01-13T15:18:13;10.73;;;7.30;;
14094;SDS011;18096;48.142;16.290;2023-01-13T15:20:41;12.73;;;7.45;;
14094;SDS011;18096;48.142;16.290;2023-01-13T15:23:07;8.10;;;6.95;;
14094;SDS011;18096;48.142;16.290;2023-01-13T15:25:33;9.40;;;6.20;;
14094;SDS011;18096;48.142;16.290;2023-01-13T15:28:00;8.30;;;6.53;;
14094;SDS011;18096;48.142;16.290;2023-01-13T15:30:29;11.20;;;7.30;;
14094;SDS011;18096;48.142;16.290;2023-01-13T15:32:56;12.32;;;7.43;;
14094;SDS011;18096;48.142;16.290;2023-01-13T15:35:23;10.65;;;6.97;;
14094;SDS011;18096;48.142;16.290;2023-01-13T15:37:51;9.05;;;6.95;;
14094;SDS011;18096;48.142;16.290;2023-01-13T15:40:19;10.30;;;6.80;;
14094;SDS011;18096;48.142;16.290;2023-01-13T15:42:53;7.32;;;6.55;;
14094;SDS011;18096;48.142;16.290;2023-01-13T15:45:38;8.93;;;6.73;;
14094;SDS011;18096;48.142;16.290;2023-01-13T15:48:23;13.43;;;7.57;;
14094;SDS011;18096;48.142;16.290;2023-01-13T15:50:50;9.40;;;6.60;;
14094;SDS011;18096;48.142;16.290;2023-01-13T15:53:16;8.38;;;6.72;;
14094;SDS011;18096;48.142;16.290;2023-01-13T15:55:42;9.70;;;6.80;;
14094;SDS011;18096;48.142;16.290;2023-01-13T15:58:13;10.63;;;6.53;;
14094;SDS011;18096;48.142;16.290;2023-01-13T16:00:40;10.38;;;6.55;;
14094;SDS011;18096;48.142;16.290;2023-01-13T16:03:12;9.80;;;6.90;;
14094;SDS011;18096;48.142;16.290;2023-01-13T16:05:39;11.25;;;7.20;;
14094;SDS011;18096;48.142;16.290;2023-01-13T16:08:09;8.90;;;6.20;;
14094;SDS011;18096;48.142;16.290;2023-01-13T16:10:41;8.10;;;6.85;;
14094;SDS011;18096;48.142;16.290;2023-01-13T16:13:08;10.77;;;7.53;;
14094;SDS011;18096;48.142;16.290;2023-01-13T16:15:40;9.75;;;7.20;;
14094;SDS011;18096;48.142;16.290;2023-01-13T16:18:09;20.80;;;7.10;;
14094;SDS011;18096;48.142;16.290;2023-01-13T16:20:41;10.30;;;6.87;;
14094;SDS011;18096;48.142;16.290;2023-01-13T16:23:07;12.45;;;7.47;;
14094;SDS011;18096;48.142;16.290;2023-01-13T16:25:33;22.95;;;8.27;;
14094;SDS011;18096;48.142;16.290;2023-01-13T16:27:59;10.80;;;7.57;;
14094;SDS011;18096;48.142;16.290;2023-01-13T16:30:32;18.42;;;7.10;;
14094;SDS011;18096;48.142;16.290;2023-01-13T16:32:59;10.50;;;7.10;;
14094;SDS011;18096;48.142;16.290;2023-01-13T16:35:26;10.48;;;7.70;;
14094;SDS011;18096;48.142;16.290;2023-01-13T16:37:53;13.57;;;8.20;;
14094;SDS011;18096;48.142;16.290;2023-01-13T16:42:48;13.82;;;7.70;;
14094;SDS011;18096;48.142;16.290;2023-01-13T16:45:15;12.52;;;7.75;;
14094;SDS011;18096;48.142;16.290;2023-01-13T16:47:40;8.80;;;7.55;;
14094;SDS011;18096;48.142;16.290;2023-01-13T16:50:12;11.87;;;8.50;;
14094;SDS011;18096;48.142;16.290;2023-01-13T16:52:42;18.38;;;8.35;;
14094;SDS011;18096;48.142;16.290;2023-01-13T16:55:07;13.05;;;8.60;;
14094;SDS011;18096;48.142;16.290;2023-01-13T16:57:33;23.58;;;8.48;;
14094;SDS011;18096;48.142;16.290;2023-01-13T16:59:59;19.00;;;8.83;;
14094;SDS011;18096;48.142;16.290;2023-01-13T17:02:24;11.77;;;8.27;;
14094;SDS011;18096;48.142;16.290;2023-01-13T17:04:50;12.93;;;8.45;;
14094;SDS011;18096;48.142;16.290;2023-01-13T17:07:16;15.20;;;8.48;;
14094;SDS011;18096;48.142;16.290;2023-01-13T17:09:42;16.95;;;9.27;;
14094;SDS011;18096;48.142;16.290;2023-01-13T17:12:08;14.43;;;8.98;;
14094;SDS011;18096;48.142;16.290;2023-01-13T17:14:34;20.90;;;8.98;;
14094;SDS011;18096;48.142;16.290;2023-01-13T17:17:00;15.20;;;8.70;;
14094;SDS011;18096;48.142;16.290;2023-01-13T17:19:26;16.17;;;9.52;;
14094;SDS011;18096;48.142;16.290;2023-01-13T17:21:51;20.10;;;9.90;;
14094;SDS011;18096;48.142;16.290;2023-01-13T17:24:17;15.98;;;11.05;;
14094;SDS011;18096;48.142;16.290;2023-01-13T17:26:44;14.40;;;10.07;;
14094;SDS011;18096;48.142;16.290;2023-01-13T17:29:14;18.88;;;11.02;;
14094;SDS011;18096;48.142;16.290;2023-01-13T17:31:47;19.52;;;11.65;;
14094;SDS011;18096;48.142;16.290;2023-01-13T17:34:14;13.02;;;9.07;;
14094;SDS011;18096;48.142;16.290;2023-01-13T17:36:40;15.25;;;9.10;;